Time;durP1;ratioP1;P1;durP2;ratioP2;P2;SDS_P1;SDS_P2;PMS_P1;PMS_P2;Temp;Humidity;BMP_temperature;BMP_pressure;BME280_temperature;BME280_humidity;BME280_pressure;Samples;Min_cycle;Max_cycle;Signal;HPM_P1;HPM_P2
2023/04/11 00:01:06;;;;;;;2.08;1.80;;;13.40;99.90;;;;;;5070842;28;20024;-69
2023/04/11 00:03:32;;;;;;;3.17;1.75;;;13.30;99.90;;;;;;5070572;28;20450;-68
2023/04/11 00:05:57;;;;;;;4.20;2.03;;;13.20;99.90;;;;;;5069698;28;20066;-68
2023/04/11 00:08:23;;;;;;;3.50;1.92;;;13.30;99.90;;;;;;5069671;28;20431;-68
2023/04/11 00:10:49;;;;;;;2.83;1.90;;;13.30;99.90;;;;;;5069860;28;20052;-67
2023/04/11 00:13:14;;;;;;;4.30;2.13;;;13.30;99.80;;;;;;5069906;28;20036;-68
2023/04/11 00:15:40;;;;;;;2.45;2.00;;;13.40;99.50;;;;;;5072659;28;20020;-69
2023/04/11 00:18:06;;;;;;;3.50;1.95;;;13.40;99.90;;;;;;5073316;28;20039;-69
2023/04/11 00:20:32;;;;;;;4.93;2.00;;;13.30;99.90;;;;;;5073816;28;20482;-68
2023/04/11 00:22:58;;;;;;;3.10;2.00;;;13.20;99.90;;;;;;5075477;28;20048;-68
2023/04/11 00:25:23;;;;;;;2.17;1.63;;;13.20;99.90;;;;;;5077781;28;20111;-68
2023/04/11 00:27:49;;;;;;;3.47;1.90;;;13.20;99.90;;;;;;5074926;28;20445;-68
2023/04/11 00:30:15;;;;;;;2.88;1.90;;;13.40;99.90;;;;;;5073345;28;20025;-68
2023/04/11 00:32:41;;;;;;;3.85;2.33;;;13.20;99.90;;;;;;5074221;28;20024;-68
2023/04/11 00:35:07;;;;;;;2.58;1.48;;;13.00;99.90;;;;;;5073335;28;20021;-68
2023/04/11 00:37:35;;;;;;;2.60;1.77;;;13.10;99.90;;;;;;5073273;28;20032;-69
2023/04/11 00:40:00;;;;;;;5.15;1.92;;;13.10;99.90;;;;;;5073076;28;20048;-68
2023/04/11 00:42:26;;;;;;;2.40;1.70;;;13.00;99.90;;;;;;5073598;28;20474;-69
2023/04/11 00:44:52;;;;;;;4.40;2.03;;;13.00;99.90;;;;;;5072981;28;20377;-69
2023/04/11 00:47:17;;;;;;;2.53;1.60;;;13.00;99.90;;;;;;5072924;28;20033;-69
2023/04/11 00:49:44;;;;;;;2.80;1.95;;;12.90;99.90;;;;;;5072764;28;20514;-72
2023/04/11 00:52:11;;;;;;;3.17;1.80;;;12.80;99.90;;;;;;5072675;28;20035;-70
2023/04/11 00:54:37;;;;;;;3.83;2.38;;;12.70;99.90;;;;;;5073306;28;20103;-69
2023/04/11 00:57:05;;;;;;;2.42;1.50;;;12.70;99.90;;;;;;5073171;28;20399;-68
2023/04/11 00:59:32;;;;;;;2.50;1.55;;;12.80;99.90;;;;;;5072890;28;20056;-68
2023/04/11 01:01:58;;;;;;;4.28;2.05;;;12.60;99.90;;;;;;5072746;28;20032;-69
2023/04/11 01:04:33;;;;;;;5.45;1.75;;;12.70;99.90;;;;;;5072312;28;20028;-69
2023/04/11 01:07:04;;;;;;;2.53;1.48;;;12.60;99.90;;;;;;5072358;28;20108;-68
2023/04/11 01:09:32;;;;;;;4.90;1.80;;;12.60;99.90;;;;;;5073278;28;20021;-69
2023/04/11 01:12:00;;;;;;;4.85;1.10;;;12.60;99.90;;;;;;5072553;28;20029;-70
2023/04/11 01:14:26;;;;;;;4.95;1.13;;;12.50;99.90;;;;;;5072291;28;20122;-70
2023/04/11 01:16:52;;;;;;;3.53;1.13;;;12.40;99.90;;;;;;5072121;28;20033;-69
2023/04/11 01:19:19;;;;;;;3.72;1.10;;;12.40;99.90;;;;;;5072017;28;20452;-69
2023/04/11 01:21:47;;;;;;;5.03;1.10;;;12.50;99.90;;;;;;5071338;28;20120;-68
2023/04/11 01:24:13;;;;;;;1.48;0.95;;;12.50;99.90;;;;;;5071932;28;20028;-70
2023/04/11 01:26:39;;;;;;;2.55;0.80;;;12.40;99.90;;;;;;5071272;28;20051;-69
2023/04/11 01:29:04;;;;;;;2.08;0.90;;;12.40;99.90;;;;;;5071886;28;20040;-69
2023/04/11 01:31:31;;;;;;;1.83;1.13;;;12.40;99.90;;;;;;5071784;28;20058;-70
2023/04/11 01:33:58;;;;;;;2.00;0.90;;;12.40;99.90;;;;;;5071768;28;20426;-69
2023/04/11 01:36:25;;;;;;;3.13;0.90;;;12.40;99.90;;;;;;5085351;28;20057;-69
2023/04/11 01:38:51;;;;;;;2.08;1.02;;;12.40;99.90;;;;;;5091680;28;20047;-69
2023/04/11 01:41:18;;;;;;;2.60;1.02;;;12.40;99.90;;;;;;5091841;28;20024;-69
2023/04/11 01:43:45;;;;;;;2.90;1.00;;;12.40;99.90;;;;;;5091724;28;20474;-69
2023/04/11 01:46:12;;;;;;;1.60;0.90;;;12.40;99.90;;;;;;5091751;28;20356;-70
2023/04/11 01:48:38;;;;;;;1.25;0.95;;;12.40;99.90;;;;;;5092025;28;20042;-70
2023/04/11 01:51:04;;;;;;;2.50;1.13;;;12.30;99.90;;;;;;5090454;28;20040;-70
2023/04/11 01:53:30;;;;;;;2.22;1.10;;;12.30;99.90;;;;;;5091622;28;20473;-70
2023/04/11 01:55:56;;;;;;;2.10;0.90;;;12.40;99.90;;;;;;5091460;28;20050;-69
2023/04/11 01:58:21;;;;;;;3.65;0.85;;;12.30;99.90;;;;;;5090126;28;20278;-69
2023/04/11 02:00:47;;;;;;;75.20;35.80;;;12.20;99.80;;;;;;5092136;28;20089;-69
2023/04/11 02:03:13;;;;;;;18.05;8.52;;;12.20;99.90;;;;;;5091265;28;20040;-69
2023/04/11 02:05:39;;;;;;;1.90;1.10;;;12.20;99.50;;;;;;5091426;28;20103;-69
2023/04/11 02:08:04;;;;;;;1.70;0.70;;;12.10;99.40;;;;;;5091446;28;20035;-69
2023/04/11 02:10:30;;;;;;;0.95;0.57;;;12.20;99.20;;;;;;5091394;28;20078;-68
2023/04/11 02:12:56;;;;;;;4.00;0.93;;;12.10;99.20;;;;;;5091304;28;20024;-68
2023/04/11 02:15:22;;;;;;;1.63;0.68;;;12.10;99.30;;;;;;5092004;28;20028;-69
2023/04/11 02:17:48;;;;;;;3.78;0.95;;;12.00;98.90;;;;;;5090072;28;20043;-69
2023/04/11 02:20:14;;;;;;;3.40;0.70;;;12.10;99.20;;;;;;5091120;28;20047;-69
2023/04/11 02:22:40;;;;;;;1.10;0.68;;;12.00;99.10;;;;;;5090112;28;20032;-69
2023/04/11 02:25:06;;;;;;;1.63;0.75;;;12.00;99.00;;;;;;5090197;28;20032;-68
2023/04/11 02:27:33;;;;;;;3.60;0.70;;;11.90;99.00;;;;;;5091713;28;20254;-69
2023/04/11 02:29:59;;;;;;;3.47;0.60;;;11.90;99.20;;;;;;5089894;28;20472;-68
2023/04/11 02:32:26;;;;;;;1.10;0.60;;;11.90;98.90;;;;;;5090884;28;20119;-69
2023/04/11 02:34:52;;;;;;;1.40;0.70;;;11.90;99.10;;;;;;5090789;28;20226;-68
2023/04/11 02:37:18;;;;;;;1.95;0.80;;;11.80;98.80;;;;;;5090711;28;20032;-67
2023/04/11 02:39:43;;;;;;;2.08;0.68;;;11.80;98.80;;;;;;5090245;28;20415;-68
2023/04/11 02:42:11;;;;;;;2.67;0.70;;;11.80;99.10;;;;;;5090708;28;20025;-68
2023/04/11 02:44:37;;;;;;;1.80;0.90;;;11.80;99.20;;;;;;5090901;28;20062;-69
2023/04/11 02:47:03;;;;;;;4.20;0.90;;;11.80;98.80;;;;;;5090903;28;20293;-67
2023/04/11 02:49:28;;;;;;;2.95;1.27;;;11.80;98.90;;;;;;5090736;28;20347;-69
2023/04/11 02:51:54;;;;;;;4.95;0.80;;;11.80;98.80;;;;;;5091201;28;20091;-67
2023/04/11 02:54:20;;;;;;;6.95;0.90;;;11.80;98.80;;;;;;5090651;28;20365;-69
2023/04/11 02:56:46;;;;;;;3.97;0.68;;;11.90;98.70;;;;;;5090604;28;20024;-69
2023/04/11 02:59:11;;;;;;;2.03;0.70;;;11.80;98.70;;;;;;5090636;28;20362;-68
2023/04/11 03:01:37;;;;;;;2.28;0.73;;;11.80;98.90;;;;;;5090925;28;20164;-68
2023/04/11 03:04:02;;;;;;;3.38;0.80;;;11.80;98.90;;;;;;5090583;28;20024;-69
2023/04/11 03:06:28;;;;;;;6.30;1.65;;;11.80;98.90;;;;;;5091279;28;20024;-69
2023/04/11 03:08:54;;;;;;;4.88;0.85;;;11.70;99.00;;;;;;5090469;28;20103;-68
2023/04/11 03:11:20;;;;;;;4.32;1.10;;;11.70;98.80;;;;;;5090462;28;20036;-69
2023/04/11 03:13:46;;;;;;;3.40;0.60;;;11.70;98.80;;;;;;5090467;28;20047;-68
2023/04/11 03:16:15;;;;;;;3.90;0.98;;;11.80;98.80;;;;;;5089266;28;20028;-68
2023/04/11 03:18:40;;;;;;;3.05;0.70;;;11.80;98.80;;;;;;5090952;28;20089;-68
2023/04/11 03:21:09;;;;;;;4.30;0.80;;;11.70;98.90;;;;;;5090575;28;20369;-68
2023/04/11 03:23:34;;;;;;;3.80;1.02;;;11.60;99.30;;;;;;5090439;28;20024;-69
2023/04/11 03:26:01;;;;;;;3.55;0.88;;;11.60;99.40;;;;;;5090363;28;20339;-68
2023/04/11 03:28:27;;;;;;;3.05;1.02;;;11.60;98.50;;;;;;5090385;28;20043;-68
2023/04/11 03:30:53;;;;;;;3.20;0.65;;;11.10;97.60;;;;;;5090651;28;20040;-68
2023/04/11 03:33:19;;;;;;;8.20;0.90;;;10.80;96.80;;;;;;5090568;28;20033;-67
2023/04/11 03:35:45;;;;;;;2.65;0.60;;;10.60;96.90;;;;;;5090479;28;20418;-68
2023/04/11 03:38:10;;;;;;;8.23;0.80;;;10.60;97.10;;;;;;5090217;28;20358;-68
2023/04/11 03:40:36;;;;;;;4.68;0.80;;;10.20;97.30;;;;;;5089276;28;20040;-68
2023/04/11 03:43:02;;;;;;;3.42;0.50;;;10.40;97.40;;;;;;5089280;28;20460;-69
2023/04/11 03:45:27;;;;;;;5.05;1.00;;;10.30;97.30;;;;;;5089600;28;20020;-68
2023/04/11 03:47:53;;;;;;;2.70;0.95;;;10.30;97.70;;;;;;5089114;28;20111;-68
2023/04/11 03:50:19;;;;;;;4.50;1.08;;;10.20;97.70;;;;;;5092004;28;20110;-68
2023/04/11 03:52:45;;;;;;;8.30;1.00;;;10.10;98.00;;;;;;5094044;28;20029;-68
2023/04/11 03:55:11;;;;;;;3.88;0.88;;;10.20;97.90;;;;;;5093828;28;20035;-68
2023/04/11 03:57:37;;;;;;;6.45;0.90;;;10.10;98.20;;;;;;5094425;28;20034;-68
2023/04/11 04:00:04;;;;;;;6.90;0.93;;;10.00;98.60;;;;;;5093888;28;20032;-68
2023/04/11 04:02:30;;;;;;;4.15;1.23;;;10.20;98.40;;;;;;5093876;28;20025;-68
2023/04/11 04:04:58;;;;;;;10.85;1.60;;;10.10;99.10;;;;;;5093920;28;20368;-69
2023/04/11 04:07:25;;;;;;;8.07;1.55;;;10.40;99.40;;;;;;5093927;28;20085;-67
2023/04/11 04:09:50;;;;;;;7.80;1.10;;;10.30;99.90;;;;;;5092906;28;20081;-67
2023/04/11 04:12:19;;;;;;;7.55;1.90;;;10.50;99.90;;;;;;5093582;28;20036;-67
2023/04/11 04:14:45;;;;;;;8.30;1.38;;;10.40;99.90;;;;;;5093313;28;20111;-68
2023/04/11 04:17:12;;;;;;;10.90;1.70;;;10.50;99.90;;;;;;5093333;28;20059;-68
2023/04/11 04:19:38;;;;;;;8.45;1.75;;;10.50;99.90;;;;;;5093506;28;20458;-69
2023/04/11 04:22:04;;;;;;;9.82;2.10;;;10.50;99.90;;;;;;5093111;28;20095;-68
2023/04/11 04:24:36;;;;;;;15.35;1.80;;;10.70;99.90;;;;;;5093737;28;20020;-68
2023/04/11 04:27:02;;;;;;;5.60;1.70;;;10.70;99.90;;;;;;5093427;28;20097;-66
2023/04/11 04:29:36;;;;;;;11.05;2.05;;;10.80;99.90;;;;;;5092085;28;20036;-67
2023/04/11 04:32:09;;;;;;;15.77;1.75;;;10.70;99.80;;;;;;5092976;28;20050;-67
2023/04/11 04:34:45;;;;;;;8.88;1.80;;;10.70;99.90;;;;;;5093314;28;20123;-67
2023/04/11 04:37:20;;;;;;;10.63;1.92;;;10.80;99.90;;;;;;5093471;28;20029;-69
2023/04/11 04:39:52;;;;;;;5.95;1.52;;;10.80;99.90;;;;;;5092740;28;20028;-68
2023/04/11 04:42:25;;;;;;;9.20;2.13;;;10.70;99.90;;;;;;5093313;28;20024;-67
2023/04/11 04:44:52;;;;;;;12.85;2.05;;;10.60;99.90;;;;;;5093131;28;20080;-68
2023/04/11 04:47:21;;;;;;;8.50;1.58;;;10.80;99.90;;;;;;5093108;28;20127;-67
2023/04/11 04:49:46;;;;;;;;;;;10.80;99.90;;;;;;5093578;28;20040;-67
2023/04/11 04:52:13;;;;;;;12.15;2.15;;;10.90;99.70;;;;;;5092744;28;19904;-68
2023/04/11 04:54:41;;;;;;;6.00;1.88;;;10.90;99.40;;;;;;5093290;28;20118;-68
2023/04/11 04:57:07;;;;;;;6.53;1.70;;;10.90;99.40;;;;;;5092934;28;20094;-68
2023/04/11 04:59:33;;;;;;;9.45;1.70;;;11.00;99.30;;;;;;5092791;28;20036;-68
2023/04/11 05:01:59;;;;;;;9.13;1.55;;;11.00;99.10;;;;;;5091855;28;20071;-68
2023/04/11 05:04:25;;;;;;;5.05;1.45;;;11.00;99.50;;;;;;5093059;28;20024;-68
2023/04/11 05:06:51;;;;;;;7.20;1.90;;;11.00;99.30;;;;;;5093183;28;20028;-68
2023/04/11 05:09:16;;;;;;;11.55;2.13;;;11.00;98.90;;;;;;5092720;28;20306;-68
2023/04/11 05:11:42;;;;;;;8.48;1.95;;;11.10;99.20;;;;;;5092554;28;20063;-68
2023/04/11 05:14:08;;;;;;;8.15;1.88;;;11.20;99.10;;;;;;5091431;28;20359;-68
2023/04/11 05:16:36;;;;;;;13.35;1.67;;;11.30;99.20;;;;;;5091357;28;20028;-69
2023/04/11 05:19:02;;;;;;;14.20;2.22;;;11.30;99.50;;;;;;5092615;28;20023;-68
2023/04/11 05:21:28;;;;;;;6.85;1.92;;;11.30;99.50;;;;;;5092861;28;20016;-68
2023/04/11 05:23:53;;;;;;;9.23;2.42;;;11.30;99.50;;;;;;5092230;28;20293;-68
2023/04/11 05:26:19;;;;;;;7.03;2.10;;;11.40;99.40;;;;;;5092170;28;20035;-67
2023/04/11 05:28:45;;;;;;;8.48;1.70;;;11.60;99.50;;;;;;5092463;28;20036;-68
2023/04/11 05:31:10;;;;;;;14.55;2.47;;;11.30;99.60;;;;;;5091811;28;20123;-67
2023/04/11 05:33:40;;;;;;;12.18;2.50;;;11.40;99.90;;;;;;5092616;28;20071;-68
2023/04/11 05:36:07;;;;;;;15.00;2.95;;;11.30;99.90;;;;;;5092210;28;20115;-69
2023/04/11 05:38:32;;;;;;;12.27;2.60;;;11.20;99.90;;;;;;5092141;28;20036;-68
2023/04/11 05:40:58;;;;;;;9.32;2.35;;;11.30;99.90;;;;;;5092372;28;20035;-68
2023/04/11 05:43:24;;;;;;;8.60;2.08;;;11.30;99.90;;;;;;5091977;28;20122;-68
2023/04/11 05:45:51;;;;;;;7.65;2.38;;;11.40;99.90;;;;;;5092254;28;20020;-67
2023/04/11 05:48:18;;;;;;;9.27;2.50;;;11.40;99.90;;;;;;5091840;28;20052;-68
2023/04/11 05:50:44;;;;;;;5.45;1.67;;;11.40;99.90;;;;;;5090815;28;20031;-67
2023/04/11 05:53:10;;;;;;;9.18;1.92;;;11.10;99.90;;;;;;5091683;28;20024;-67
2023/04/11 05:55:36;;;;;;;8.38;1.70;;;11.10;99.90;;;;;;5091620;28;20036;-68
2023/04/11 05:58:02;;;;;;;8.63;2.38;;;11.00;99.90;;;;;;5091599;28;20020;-68
2023/04/11 06:00:29;;;;;;;4.80;1.27;;;11.00;99.50;;;;;;5091686;28;20445;-68
2023/04/11 06:02:56;;;;;;;3.65;1.05;;;11.00;99.40;;;;;;5091929;28;20036;-67
2023/04/11 06:05:22;;;;;;;4.03;1.35;;;10.80;99.60;;;;;;5090522;28;20028;-69
2023/04/11 06:07:48;;;;;;;4.82;0.93;;;10.90;99.60;;;;;;5091599;28;20048;-68
2023/04/11 06:10:14;;;;;;;11.23;2.40;;;10.90;98.90;;;;;;5091528;28;20107;-68
2023/04/11 06:12:40;;;;;;;5.35;0.80;;;11.00;99.00;;;;;;5090727;28;20487;-68
2023/04/11 06:15:07;;;;;;;4.32;1.33;;;11.00;98.90;;;;;;5091301;28;20032;-68
2023/04/11 06:17:33;;;;;;;5.95;1.30;;;11.10;98.80;;;;;;5091269;28;20401;-68
2023/04/11 06:20:00;;;;;;;6.45;1.20;;;10.80;98.90;;;;;;5091384;28;20032;-67
2023/04/11 06:22:26;;;;;;;6.63;1.48;;;10.80;99.20;;;;;;5091285;28;20067;-68
2023/04/11 06:24:51;;;;;;;5.68;1.38;;;10.50;99.80;;;;;;5091857;28;20064;-66
2023/04/11 06:27:17;;;;;;;5.72;1.38;;;10.50;99.90;;;;;;5091223;28;20119;-66
2023/04/11 06:29:43;;;;;;;6.57;1.58;;;10.40;99.90;;;;;;5091111;28;20039;-66
2023/04/11 06:32:10;;;;;;;4.88;1.48;;;10.30;99.90;;;;;;5090593;28;20050;-67
2023/04/11 06:34:38;;;;;;;5.25;1.30;;;10.40;99.90;;;;;;5076047;28;20111;-68
2023/04/11 06:37:06;;;;;;;2.38;0.95;;;10.40;99.90;;;;;;5079292;28;20422;-69
2023/04/11 06:39:32;;;;;;;7.13;1.17;;;10.30;99.90;;;;;;5091164;28;20020;-71
2023/04/11 06:41:57;;;;;;;3.33;1.05;;;10.40;99.90;;;;;;5091018;28;20032;-70
2023/04/11 06:44:23;;;;;;;5.05;1.17;;;10.40;99.90;;;;;;5090856;28;20032;-68
2023/04/11 06:46:49;;;;;;;5.22;1.50;;;10.50;99.90;;;;;;5090784;28;20127;-68
2023/04/11 06:49:16;;;;;;;6.40;1.00;;;10.50;99.90;;;;;;5090733;28;20374;-69
2023/04/11 06:51:42;;;;;;;4.00;0.68;;;10.60;99.90;;;;;;5090982;28;20471;-69
2023/04/11 06:54:07;;;;;;;4.57;1.25;;;10.50;99.90;;;;;;5090812;28;20040;-70
2023/04/11 06:56:33;;;;;;;2.35;0.80;;;10.60;99.90;;;;;;5090762;28;20400;-69
2023/04/11 06:58:59;;;;;;;3.17;0.73;;;10.60;99.90;;;;;;5089456;28;20043;-70
2023/04/11 07:01:29;;;;;;;1.85;0.77;;;10.60;99.90;;;;;;5090663;28;20028;-69
2023/04/11 07:03:55;;;;;;;5.18;0.95;;;10.70;99.90;;;;;;5091359;28;20058;-69
2023/04/11 07:06:21;;;;;;;7.32;0.65;;;10.70;99.90;;;;;;5090647;28;20028;-68
2023/04/11 07:08:47;;;;;;;5.22;0.88;;;10.60;99.90;;;;;;5090679;28;20029;-67
2023/04/11 07:11:13;;;;;;;5.18;0.80;;;10.60;99.90;;;;;;5090525;28;20062;-68
2023/04/11 07:13:39;;;;;;;3.72;0.73;;;10.60;99.90;;;;;;5090441;28;20028;-70
2023/04/11 07:16:05;;;;;;;3.67;0.77;;;10.60;99.90;;;;;;5090468;28;20039;-67
2023/04/11 07:18:31;;;;;;;4.25;0.95;;;10.70;99.90;;;;;;5090864;28;20016;-68
2023/04/11 07:20:56;;;;;;;9.48;1.30;;;10.80;99.90;;;;;;5090315;28;20054;-69
2023/04/11 07:23:22;;;;;;;4.93;0.90;;;10.80;99.90;;;;;;5090413;28;20506;-70
2023/04/11 07:25:48;;;;;;;3.45;1.25;;;10.70;99.90;;;;;;5093166;28;20392;-69
2023/04/11 07:28:14;;;;;;;5.40;1.35;;;10.90;99.90;;;;;;5094543;28;20020;-69
2023/04/11 07:30:40;;;;;;;7.78;1.10;;;10.90;99.40;;;;;;5094686;28;20342;-70
2023/04/11 07:33:06;;;;;;;6.13;0.80;;;10.90;99.10;;;;;;5094400;28;20025;-71
2023/04/11 07:35:33;;;;;;;5.53;1.00;;;10.80;99.10;;;;;;5094310;28;20035;-70
2023/04/11 07:38:00;;;;;;;5.97;1.88;;;10.80;99.50;;;;;;5094528;28;20093;-72
2023/04/11 07:40:26;;;;;;;5.32;1.10;;;11.00;99.50;;;;;;5094029;28;20036;-69
2023/04/11 07:42:51;;;;;;;10.18;1.65;;;11.10;99.40;;;;;;5093601;28;20098;-70
2023/04/11 07:45:18;;;;;;;7.60;1.63;;;11.20;99.30;;;;;;5094281;28;20270;-69
2023/04/11 07:47:44;;;;;;;4.25;1.17;;;11.20;99.00;;;;;;5094107;28;20052;-70
2023/04/11 07:50:10;;;;;;;9.30;1.77;;;11.40;99.00;;;;;;5094086;28;20094;-69
2023/04/11 07:52:35;;;;;;;6.57;1.20;;;11.40;99.10;;;;;;5093997;28;20047;-69
2023/04/11 07:55:01;;;;;;;8.88;2.22;;;11.40;98.90;;;;;;5094259;28;20020;-69
2023/04/11 07:57:28;;;;;;;20.55;2.20;;;11.40;98.80;;;;;;5094358;28;20485;-70
2023/04/11 07:59:55;;;;;;;8.85;1.58;;;11.50;98.80;;;;;;5092574;28;20059;-71
2023/04/11 08:02:22;;;;;;;7.93;1.70;;;11.60;98.60;;;;;;5093822;28;20066;-69
2023/04/11 08:04:48;;;;;;;12.60;1.88;;;11.60;98.50;;;;;;5092296;28;20033;-70
2023/04/11 08:07:14;;;;;;;8.18;1.70;;;11.70;98.70;;;;;;5093788;28;20206;-70
2023/04/11 08:09:41;;;;;;;11.13;1.90;;;11.80;98.40;;;;;;5093046;28;20037;-70
2023/04/11 08:12:07;;;;;;;9.90;2.30;;;11.80;98.60;;;;;;5093563;28;20036;-68
2023/04/11 08:14:34;;;;;;;13.10;3.03;;;12.00;98.10;;;;;;5093500;28;20039;-70
2023/04/11 08:17:00;;;;;;;9.23;1.67;;;12.30;97.80;;;;;;5093621;28;20445;-70
2023/04/11 08:19:26;;;;;;;6.63;1.60;;;12.70;97.10;;;;;;5093600;28;20046;-69
2023/04/11 08:21:51;;;;;;;6.63;1.45;;;12.70;97.20;;;;;;5093754;28;20384;-70
2023/04/11 08:24:17;;;;;;;5.13;1.15;;;12.90;96.10;;;;;;5093242;28;20039;-69
2023/04/11 08:26:43;;;;;;;6.18;1.58;;;13.50;96.20;;;;;;5093264;28;20082;-70
2023/04/11 08:29:11;;;;;;;7.00;1.70;;;13.70;95.40;;;;;;5093363;28;20028;-68
2023/04/11 08:31:42;;;;;;;5.55;1.67;;;13.60;95.10;;;;;;5093167;28;20089;-70
2023/04/11 08:34:07;;;;;;;10.00;1.70;;;13.70;95.00;;;;;;5093344;28;20441;-71
2023/04/11 08:36:33;;;;;;;5.47;1.65;;;13.70;95.10;;;;;;5093694;28;20012;-71
2023/04/11 08:38:59;;;;;;;14.80;2.20;;;13.30;94.80;;;;;;5093266;28;20056;-71
2023/04/11 08:41:29;;;;;;;4.53;1.20;;;13.00;95.10;;;;;;5091982;28;20429;-71
2023/04/11 08:43:55;;;;;;;8.75;2.60;;;13.10;95.60;;;;;;5093079;28;20153;-70
2023/04/11 08:46:21;;;;;;;8.82;1.75;;;13.10;95.20;;;;;;5092970;28;20458;-69
2023/04/11 08:48:47;;;;;;;6.90;1.80;;;12.60;95.40;;;;;;5093333;28;20036;-70
2023/04/11 08:51:19;;;;;;;6.80;1.92;;;12.60;95.30;;;;;;5092996;28;20090;-70
2023/04/11 08:53:45;;;;;;;7.75;1.85;;;12.70;95.60;;;;;;5093304;28;20036;-69
2023/04/11 08:56:17;;;;;;;6.25;1.48;;;12.60;95.50;;;;;;5093305;28;20495;-72
2023/04/11 08:58:43;;;;;;;10.20;1.70;;;12.50;95.70;;;;;;5091839;28;20036;-74
2023/04/11 09:01:31;;;;;;;10.15;1.73;;;12.30;96.10;;;;;;5092793;28;20030;-72
2023/04/11 09:03:59;;;;;;;8.38;1.52;;;12.50;95.70;;;;;;5092688;28;20027;-72
2023/04/11 09:06:31;;;;;;;9.85;2.03;;;12.70;95.80;;;;;;5093320;28;20027;-70
2023/04/11 09:09:05;;;;;;;8.85;1.88;;;12.80;95.40;;;;;;5091673;28;20032;-71
2023/04/11 09:11:50;;;;;;;7.40;1.52;;;12.90;95.30;;;;;;5092684;28;20465;-69
2023/04/11 09:14:16;;;;;;;10.27;1.63;;;12.80;95.00;;;;;;5092582;28;20036;-69
2023/04/11 09:17:00;;;;;;;8.18;1.15;;;12.70;95.00;;;;;;5092618;28;20036;-71
2023/04/11 09:19:30;;;;;;;6.07;1.45;;;12.90;94.40;;;;;;5092200;28;20473;-70
2023/04/11 09:21:59;;;;;;;7.97;2.25;;;13.60;93.20;;;;;;5092220;28;20453;-70
2023/04/11 09:24:28;;;;;;;8.20;1.15;;;14.80;93.00;;;;;;5093239;28;20122;-67
2023/04/11 09:27:11;;;;;;;4.95;1.35;;;16.30;90.90;;;;;;5092046;28;20042;-71
2023/04/11 09:29:47;;;;;;;3.78;1.38;;;17.50;88.80;;;;;;5092318;28;20157;-70
2023/04/11 09:32:28;;;;;;;1.98;1.00;;;17.50;84.30;;;;;;5091633;28;20520;-73
2023/04/11 09:35:12;;;;;;;6.93;1.35;;;18.30;82.60;;;;;;5090928;28;20032;-73
2023/04/11 09:37:48;;;;;;;8.07;1.58;;;18.20;82.40;;;;;;5090822;28;20036;-72
2023/04/11 09:40:16;;;;;;;7.65;1.33;;;17.70;80.90;;;;;;5091830;28;20032;-72
2023/04/11 09:42:42;;;;;;;;;;;17.50;81.10;;;;;;5091819;28;20020;-71
2023/04/11 09:45:29;;;;;;;5.70;1.75;;;17.60;82.20;;;;;;5091825;28;19994;-71
2023/04/11 09:47:57;;;;;;;5.97;1.92;;;17.20;81.80;;;;;;5090190;28;20453;-77
2023/04/11 09:50:24;;;;;;;1.25;0.50;;;16.70;83.00;;;;;;5092095;28;20419;-71
2023/04/11 09:52:51;;;;;;;5.13;1.10;;;16.40;83.60;;;;;;5091769;28;20406;-72
2023/04/11 09:55:22;;;;;;;4.50;0.60;;;16.30;84.20;;;;;;5091406;28;20032;-70
2023/04/11 09:57:53;;;;;;;7.35;1.02;;;15.50;86.40;;;;;;5092041;28;20343;-69
2023/04/11 10:00:21;;;;;;;6.13;0.70;;;14.80;88.40;;;;;;5091493;28;20033;-69
2023/04/11 10:02:48;;;;;;;;;;;14.60;88.80;;;;;;5090562;28;20031;-72
2023/04/11 10:05:16;;;;;;;6.63;0.80;;;14.20;89.80;;;;;;5091754;28;20378;-69
2023/04/11 10:07:54;;;;;;;2.75;0.98;;;13.00;91.80;;;;;;5091751;28;20040;-69
2023/04/11 10:10:21;;;;;;;4.80;0.95;;;13.00;92.40;;;;;;5091305;28;20024;-69
2023/04/11 10:12:48;;;;;;;2.97;0.90;;;12.90;92.10;;;;;;5090822;28;20028;-69
2023/04/11 10:15:14;;;;;;;4.32;1.00;;;12.70;91.70;;;;;;5091252;28;20052;-69
2023/04/11 10:17:40;;;;;;;5.65;1.08;;;12.80;91.30;;;;;;5091269;28;20024;-70
2023/04/11 10:20:37;;;;;;;3.72;1.05;;;12.80;90.60;;;;;;5091472;28;20050;-70
2023/04/11 10:23:04;;;;;;;3.53;1.08;;;12.90;90.50;;;;;;5091556;28;20055;-69
2023/04/11 10:25:31;;;;;;;5.20;1.08;;;13.10;90.50;;;;;;5089872;28;20162;-69
2023/04/11 10:28:03;;;;;;;3.03;1.02;;;13.00;90.50;;;;;;5091529;28;20031;-69
2023/04/11 10:30:43;;;;;;;4.60;0.95;;;13.10;90.70;;;;;;5091230;28;20481;-70
2023/04/11 10:33:14;;;;;;;4.60;1.20;;;14.30;89.90;;;;;;5090991;28;20393;-69
2023/04/11 10:36:09;;;;;;;4.50;0.98;;;14.70;89.20;;;;;;5091142;28;20031;-69
2023/04/11 10:38:46;;;;;;;4.35;1.20;;;14.70;88.70;;;;;;5089819;28;20052;-70
2023/04/11 10:41:30;;;;;;;5.05;0.95;;;15.30;88.20;;;;;;5090821;28;20093;-69
2023/04/11 10:44:17;;;;;;;5.25;1.20;;;15.20;83.50;;;;;;5090892;28;20115;-69
2023/04/11 10:46:53;;;;;;;3.78;0.90;;;15.50;81.00;;;;;;5089896;28;20083;-70
2023/04/11 10:49:39;;;;;;;6.18;1.05;;;15.60;77.90;;;;;;5090985;28;20039;-70
2023/04/11 10:52:37;;;;;;;2.80;0.73;;;16.30;76.20;;;;;;5089463;28;20031;-69
2023/04/11 10:55:16;;;;;;;1.50;0.60;;;17.50;74.30;;;;;;5067531;28;20458;-71
2023/04/11 10:58:15;;;;;;;3.17;0.90;;;17.80;68.10;;;;;;5090254;28;20121;-70
2023/04/11 11:00:48;;;;;;;5.70;0.82;;;17.80;64.60;;;;;;5067119;28;20450;-69
2023/04/11 11:03:19;;;;;;;4.28;1.20;;;17.60;65.60;;;;;;5090636;28;20027;-70
2023/04/11 11:05:45;;;;;;;3.92;1.05;;;17.50;65.10;;;;;;5089850;28;20115;-70
2023/04/11 11:08:11;;;;;;;3.10;0.82;;;16.70;65.50;;;;;;5090663;28;20028;-70
2023/04/11 11:10:39;;;;;;;3.15;1.00;;;16.30;67.30;;;;;;5090843;28;20032;-70
2023/04/11 11:13:05;;;;;;;4.13;1.17;;;15.80;67.70;;;;;;5090628;28;20468;-69
2023/04/11 11:15:36;;;;;;;6.05;1.30;;;15.70;68.80;;;;;;5090832;28;20024;-69
2023/04/11 11:18:03;;;;;;;5.95;1.00;;;15.50;69.30;;;;;;5090531;28;20021;-69
2023/04/11 11:20:29;;;;;;;10.20;1.35;;;15.70;70.00;;;;;;5089506;28;20058;-69
2023/04/11 11:23:03;;;;;;;7.15;1.70;;;15.50;70.10;;;;;;5090403;28;20052;-70
2023/04/11 11:25:29;;;;;;;2.28;1.23;;;15.50;70.00;;;;;;5090416;28;20385;-69
2023/04/11 11:28:07;;;;;;;3.40;0.73;;;15.50;69.20;;;;;;5090858;28;20454;-70
2023/04/11 11:30:34;;;;;;;3.33;0.95;;;15.10;68.10;;;;;;5090363;28;20095;-69
2023/04/11 11:33:21;;;;;;;9.50;1.50;;;15.20;68.00;;;;;;5089235;28;20020;-71
2023/04/11 11:35:54;;;;;;;4.47;0.90;;;15.30;66.80;;;;;;5089310;28;20457;-68
2023/04/11 11:38:23;;;;;;;4.20;1.00;;;15.00;66.10;;;;;;5089214;28;20028;-66
2023/04/11 11:40:49;;;;;;;6.03;1.10;;;15.20;67.60;;;;;;5090328;28;20051;-69
2023/04/11 11:43:15;;;;;;;3.67;0.70;;;15.50;68.10;;;;;;5090421;28;20061;-70
2023/04/11 11:45:42;;;;;;;3.80;1.00;;;15.70;68.10;;;;;;5090713;28;20453;-68
2023/04/11 11:48:24;;;;;;;4.22;0.98;;;15.80;67.70;;;;;;5089131;28;20471;-71
2023/04/11 11:50:56;;;;;;;7.57;1.15;;;15.70;68.40;;;;;;5090160;28;20339;-68
2023/04/11 11:53:23;;;;;;;4.38;1.30;;;15.60;67.50;;;;;;5090236;28;20032;-71
2023/04/11 11:55:49;;;;;;;7.90;3.08;;;15.80;68.00;;;;;;5090265;28;20390;-69
2023/04/11 11:58:17;;;;;;;3.08;1.35;;;15.70;68.30;;;;;;5090111;28;20020;-69
2023/04/11 12:00:48;;;;;;;7.05;1.00;;;15.60;69.40;;;;;;5090575;28;20050;-70
2023/04/11 12:03:19;;;;;;;6.20;1.05;;;15.50;70.00;;;;;;5090048;28;20100;-71
2023/04/11 12:05:46;;;;;;;2.20;0.65;;;15.50;70.20;;;;;;5088856;28;20545;-70
2023/04/11 12:08:12;;;;;;;10.40;1.75;;;15.70;69.80;;;;;;5090057;28;20036;-72
2023/04/11 12:10:40;;;;;;;6.22;1.15;;;15.80;69.70;;;;;;5090652;28;20051;-70
2023/04/11 12:13:21;;;;;;;4.53;0.85;;;15.80;69.80;;;;;;5093754;28;20020;-67
2023/04/11 12:15:52;;;;;;;12.25;2.63;;;15.70;69.90;;;;;;5094289;28;20410;-69
2023/04/11 12:18:22;;;;;;;6.60;1.30;;;15.60;68.80;;;;;;5093572;28;20043;-70
2023/04/11 12:20:49;;;;;;;3.17;1.17;;;15.60;69.00;;;;;;5093541;28;20378;-69
2023/04/11 12:23:15;;;;;;;7.22;1.25;;;15.50;69.10;;;;;;5093457;28;20032;-69
2023/04/11 12:25:41;;;;;;;4.63;1.50;;;15.80;70.20;;;;;;5093740;28;20047;-69
2023/04/11 12:28:07;;;;;;;3.03;0.75;;;15.80;69.60;;;;;;5093312;28;20024;-70
2023/04/11 12:30:33;;;;;;;10.07;1.40;;;15.70;68.90;;;;;;5093728;28;20097;-70
2023/04/11 12:32:59;;;;;;;4.22;1.10;;;15.60;68.80;;;;;;5092267;28;20559;-70
2023/04/11 12:35:25;;;;;;;7.28;1.73;;;15.40;67.80;;;;;;5093299;28;20488;-69
2023/04/11 12:37:51;;;;;;;3.50;0.90;;;15.60;69.20;;;;;;5093498;28;20059;-70
2023/04/11 12:40:17;;;;;;;7.50;2.08;;;15.90;68.80;;;;;;5093008;28;20417;-70
2023/04/11 12:42:44;;;;;;;3.90;0.80;;;15.80;66.80;;;;;;5093862;28;20035;-71
2023/04/11 12:45:11;;;;;;;7.63;1.50;;;15.60;66.70;;;;;;5093472;28;20032;-70
2023/04/11 12:47:37;;;;;;;5.43;1.33;;;15.40;66.90;;;;;;5093404;28;20469;-68
2023/04/11 12:50:04;;;;;;;5.35;1.00;;;15.20;67.30;;;;;;5093136;28;20047;-70